sensor_id;sensor_type;location;lat;lon;timestamp;pressure;altitude;pressure_sealevel;temperature;humidity
62548;BME280;48602;45.192;5.722;2023-04-28T00:01:10;99242.78;;;16.80;53.70
62548;BME280;48602;45.192;5.722;2023-04-28T00:03:36;99243.84;;;16.78;54.66
62548;BME280;48602;45.192;5.722;2023-04-28T00:06:01;99244.06;;;16.74;54.54
62548;BME280;48602;45.192;5.722;2023-04-28T00:08:27;99240.53;;;16.74;54.93
62548;BME280;48602;45.192;5.722;2023-04-28T00:10:53;99236.25;;;16.71;54.67
62548;BME280;48602;45.192;5.722;2023-04-28T00:13:18;99245.00;;;16.73;54.76
62548;BME280;48602;45.192;5.722;2023-04-28T00:15:44;99240.53;;;16.74;54.42
62548;BME280;48602;45.192;5.722;2023-04-28T00:18:09;99242.03;;;16.78;54.81
62548;BME280;48602;45.192;5.722;2023-04-28T00:20:34;99233.94;;;16.80;54.72
62548;BME280;48602;45.192;5.722;2023-04-28T00:23:00;99240.97;;;16.81;54.65
62548;BME280;48602;45.192;5.722;2023-04-28T00:25:25;99239.94;;;16.83;54.98
62548;BME280;48602;45.192;5.722;2023-04-28T00:27:50;99240.50;;;16.88;55.02
62548;BME280;48602;45.192;5.722;2023-04-28T00:30:16;99235.94;;;16.90;54.63
62548;BME280;48602;45.192;5.722;2023-04-28T00:32:41;99234.78;;;16.94;54.66
62548;BME280;48602;45.192;5.722;2023-04-28T00:35:07;99233.72;;;16.97;55.06
62548;BME280;48602;45.192;5.722;2023-04-28T00:37:37;99230.97;;;16.98;54.82
62548;BME280;48602;45.192;5.722;2023-04-28T00:40:03;99236.19;;;17.00;54.87
62548;BME280;48602;45.192;5.722;2023-04-28T00:42:29;99230.78;;;17.01;54.88
62548;BME280;48602;45.192;5.722;2023-04-28T00:44:54;99225.53;;;17.00;55.06
62548;BME280;48602;45.192;5.722;2023-04-28T00:47:20;99229.81;;;17.02;55.39
62548;BME280;48602;45.192;5.722;2023-04-28T00:49:46;99216.50;;;17.02;55.09
62548;BME280;48602;45.192;5.722;2023-04-28T00:52:14;99216.31;;;17.05;55.30
62548;BME280;48602;45.192;5.722;2023-04-28T00:54:39;99214.59;;;17.04;55.24
62548;BME280;48602;45.192;5.722;2023-04-28T00:57:07;99214.31;;;17.09;55.42
62548;BME280;48602;45.192;5.722;2023-04-28T00:59:34;99217.78;;;17.09;55.38
62548;BME280;48602;45.192;5.722;2023-04-28T01:01:59;99219.63;;;17.09;55.50
62548;BME280;48602;45.192;5.722;2023-04-28T01:04:26;99215.97;;;17.10;55.59
62548;BME280;48602;45.192;5.722;2023-04-28T01:06:54;99210.78;;;17.08;56.03
62548;BME280;48602;45.192;5.722;2023-04-28T01:09:20;99218.88;;;17.07;55.81
62548;BME280;48602;45.192;5.722;2023-04-28T01:11:46;99221.44;;;17.08;56.02
62548;BME280;48602;45.192;5.722;2023-04-28T01:14:11;99220.69;;;17.06;56.08
62548;BME280;48602;45.192;5.722;2023-04-28T01:16:37;99219.94;;;17.04;55.87
62548;BME280;48602;45.192;5.722;2023-04-28T01:19:06;99215.56;;;17.03;55.87
62548;BME280;48602;45.192;5.722;2023-04-28T01:21:32;99214.69;;;17.03;56.13
62548;BME280;48602;45.192;5.722;2023-04-28T01:23:59;99214.03;;;16.99;56.36
62548;BME280;48602;45.192;5.722;2023-04-28T01:26:24;99209.84;;;16.95;56.01
62548;BME280;48602;45.192;5.722;2023-04-28T01:28:50;99208.56;;;16.88;56.61
62548;BME280;48602;45.192;5.722;2023-04-28T01:31:15;99218.72;;;16.82;56.68
62548;BME280;48602;45.192;5.722;2023-04-28T01:33:41;99220.09;;;16.74;57.33
62548;BME280;48602;45.192;5.722;2023-04-28T01:36:06;99213.25;;;16.70;57.30
62548;BME280;48602;45.192;5.722;2023-04-28T01:38:32;99217.06;;;16.66;57.35
62548;BME280;48602;45.192;5.722;2023-04-28T01:40:58;99219.97;;;16.62;57.30
62548;BME280;48602;45.192;5.722;2023-04-28T01:43:24;99229.22;;;16.56;57.43
62548;BME280;48602;45.192;5.722;2023-04-28T01:45:49;99230.34;;;16.52;57.99
62548;BME280;48602;45.192;5.722;2023-04-28T01:48:15;99232.53;;;16.46;57.74
62548;BME280;48602;45.192;5.722;2023-04-28T01:50:40;99231.03;;;16.42;57.89
62548;BME280;48602;45.192;5.722;2023-04-28T01:53:06;99232.06;;;16.39;58.28
62548;BME280;48602;45.192;5.722;2023-04-28T01:55:31;99229.59;;;16.36;57.97
62548;BME280;48602;45.192;5.722;2023-04-28T01:57:57;99227.88;;;16.35;58.47
62548;BME280;48602;45.192;5.722;2023-04-28T02:00:22;99233.56;;;16.29;58.85
62548;BME280;48602;45.192;5.722;2023-04-28T02:02:48;99233.09;;;16.22;59.32
62548;BME280;48602;45.192;5.722;2023-04-28T02:05:13;99239.56;;;16.18;59.33
62548;BME280;48602;45.192;5.722;2023-04-28T02:07:39;99237.84;;;16.17;59.51
62548;BME280;48602;45.192;5.722;2023-04-28T02:10:05;99231.84;;;16.14;59.39
62548;BME280;48602;45.192;5.722;2023-04-28T02:12:30;99235.38;;;16.14;59.32
62548;BME280;48602;45.192;5.722;2023-04-28T02:14:56;99234.59;;;16.12;59.33
62548;BME280;48602;45.192;5.722;2023-04-28T02:17:21;99235.53;;;16.11;58.92
62548;BME280;48602;45.192;5.722;2023-04-28T02:19:47;99237.44;;;16.09;58.42
62548;BME280;48602;45.192;5.722;2023-04-28T02:22:12;99240.22;;;16.08;58.44
62548;BME280;48602;45.192;5.722;2023-04-28T02:24:37;99246.41;;;16.08;58.55
62548;BME280;48602;45.192;5.722;2023-04-28T02:27:04;99243.63;;;16.10;58.31
62548;BME280;48602;45.192;5.722;2023-04-28T02:29:29;99237.34;;;16.11;58.41
62548;BME280;48602;45.192;5.722;2023-04-28T02:31:56;99233.09;;;16.08;58.37
62548;BME280;48602;45.192;5.722;2023-04-28T02:34:21;99229.47;;;16.09;58.53
62548;BME280;48602;45.192;5.722;2023-04-28T02:36:46;99238.41;;;16.08;58.63
62548;BME280;48602;45.192;5.722;2023-04-28T02:39:12;99233.09;;;16.08;59.10
62548;BME280;48602;45.192;5.722;2023-04-28T02:41:38;99233.28;;;16.05;58.84
62548;BME280;48602;45.192;5.722;2023-04-28T02:44:03;99235.16;;;16.03;59.17
62548;BME280;48602;45.192;5.722;2023-04-28T02:46:29;99227.19;;;16.03;59.38
62548;BME280;48602;45.192;5.722;2023-04-28T02:48:54;99223.84;;;15.99;59.11
62548;BME280;48602;45.192;5.722;2023-04-28T02:51:20;99216.16;;;15.95;58.91
62548;BME280;48602;45.192;5.722;2023-04-28T02:53:45;99223.34;;;15.93;58.95
62548;BME280;48602;45.192;5.722;2023-04-28T02:56:11;99232.41;;;15.90;59.36
62548;BME280;48602;45.192;5.722;2023-04-28T02:58:36;99230.78;;;15.88;59.38
62548;BME280;48602;45.192;5.722;2023-04-28T03:01:02;99238.94;;;15.85;59.40
62548;BME280;48602;45.192;5.722;2023-04-28T03:03:27;99238.34;;;15.80;60.32
62548;BME280;48602;45.192;5.722;2023-04-28T03:05:52;99243.28;;;15.72;59.52
62548;BME280;48602;45.192;5.722;2023-04-28T03:08:18;99236.75;;;15.61;60.08
62548;BME280;48602;45.192;5.722;2023-04-28T03:10:45;99242.94;;;15.46;59.59
62548;BME280;48602;45.192;5.722;2023-04-28T03:13:11;99243.56;;;15.35;60.03
62548;BME280;48602;45.192;5.722;2023-04-28T03:15:37;99232.59;;;15.26;59.80
62548;BME280;48602;45.192;5.722;2023-04-28T03:18:02;99228.25;;;15.25;60.55
62548;BME280;48602;45.192;5.722;2023-04-28T03:20:28;99233.53;;;15.25;61.18
62548;BME280;48602;45.192;5.722;2023-04-28T03:22:53;99235.38;;;15.24;61.09
62548;BME280;48602;45.192;5.722;2023-04-28T03:25:18;99246.09;;;15.23;61.24
62548;BME280;48602;45.192;5.722;2023-04-28T03:27:44;99237.19;;;15.24;61.97
62548;BME280;48602;45.192;5.722;2023-04-28T03:30:09;99235.56;;;15.21;62.16
62548;BME280;48602;45.192;5.722;2023-04-28T03:32:35;99248.75;;;15.23;61.65
62548;BME280;48602;45.192;5.722;2023-04-28T03:35:00;99247.03;;;15.22;61.99
62548;BME280;48602;45.192;5.722;2023-04-28T03:37:26;99257.44;;;15.25;61.37
62548;BME280;48602;45.192;5.722;2023-04-28T03:39:51;99260.41;;;15.20;61.67
62548;BME280;48602;45.192;5.722;2023-04-28T03:42:17;99260.81;;;15.13;62.17
62548;BME280;48602;45.192;5.722;2023-04-28T03:44:42;99254.06;;;15.07;61.90
62548;BME280;48602;45.192;5.722;2023-04-28T03:47:07;99256.88;;;15.04;62.09
62548;BME280;48602;45.192;5.722;2023-04-28T03:49:33;99261.69;;;14.97;62.11
62548;BME280;48602;45.192;5.722;2023-04-28T03:51:58;99262.63;;;14.96;62.56
62548;BME280;48602;45.192;5.722;2023-04-28T03:54:24;99264.50;;;14.94;61.99
62548;BME280;48602;45.192;5.722;2023-04-28T03:56:49;99271.78;;;14.91;62.20
62548;BME280;48602;45.192;5.722;2023-04-28T03:59:15;99266.56;;;14.89;62.51
62548;BME280;48602;45.192;5.722;2023-04-28T04:01:40;99272.91;;;14.87;62.31
62548;BME280;48602;45.192;5.722;2023-04-28T04:04:06;99279.06;;;14.87;62.20
62548;BME280;48602;45.192;5.722;2023-04-28T04:06:31;99274.63;;;14.88;62.99
62548;BME280;48602;45.192;5.722;2023-04-28T04:08:57;99263.31;;;14.84;63.25
62548;BME280;48602;45.192;5.722;2023-04-28T04:11:22;99272.91;;;14.87;63.39
62548;BME280;48602;45.192;5.722;2023-04-28T04:13:48;99274.63;;;14.88;62.98
62548;BME280;48602;45.192;5.722;2023-04-28T04:16:13;99280.00;;;14.86;62.91
62548;BME280;48602;45.192;5.722;2023-04-28T04:18:41;99287.03;;;14.87;63.57
62548;BME280;48602;45.192;5.722;2023-04-28T04:21:07;99285.22;;;14.88;63.26
62548;BME280;48602;45.192;5.722;2023-04-28T04:23:32;99286.16;;;14.87;63.28
62548;BME280;48602;45.192;5.722;2023-04-28T04:25:58;99275.47;;;14.88;63.56
62548;BME280;48602;45.192;5.722;2023-04-28T04:28:23;99265.72;;;14.89;63.56
62548;BME280;48602;45.192;5.722;2023-04-28T04:30:49;99265.50;;;14.92;63.45
62548;BME280;48602;45.192;5.722;2023-04-28T04:33:14;99269.81;;;14.94;63.25
62548;BME280;48602;45.192;5.722;2023-04-28T04:35:39;99275.63;;;15.01;63.54
62548;BME280;48602;45.192;5.722;2023-04-28T04:38:05;99277.28;;;15.04;63.51
62548;BME280;48602;45.192;5.722;2023-04-28T04:40:31;99268.44;;;15.03;63.60
62548;BME280;48602;45.192;5.722;2023-04-28T04:42:57;99271.88;;;15.05;63.73
62548;BME280;48602;45.192;5.722;2023-04-28T04:45:22;99270.16;;;15.04;64.38
62548;BME280;48602;45.192;5.722;2023-04-28T04:47:48;99273.59;;;15.06;64.68
62548;BME280;48602;45.192;5.722;2023-04-28T04:50:13;99261.19;;;15.07;64.29
62548;BME280;48602;45.192;5.722;2023-04-28T04:52:39;99260.97;;;15.10;64.28
62548;BME280;48602;45.192;5.722;2023-04-28T04:55:04;99267.91;;;15.12;64.27
62548;BME280;48602;45.192;5.722;2023-04-28T04:57:30;99270.41;;;15.15;64.31
62548;BME280;48602;45.192;5.722;2023-04-28T04:59:56;99275.63;;;15.17;64.31
62548;BME280;48602;45.192;5.722;2023-04-28T05:02:21;99273.84;;;15.17;64.44
62548;BME280;48602;45.192;5.722;2023-04-28T05:04:46;99274.53;;;15.21;64.12
62548;BME280;48602;45.192;5.722;2023-04-28T05:07:12;99274.63;;;15.19;64.22
62548;BME280;48602;45.192;5.722;2023-04-28T05:09:37;99262.28;;;15.18;63.97
62548;BME280;48602;45.192;5.722;2023-04-28T05:12:03;99266.47;;;15.22;64.31
62548;BME280;48602;45.192;5.722;2023-04-28T05:14:28;99281.03;;;15.31;63.86
62548;BME280;48602;45.192;5.722;2023-04-28T05:16:54;99286.00;;;15.37;64.18
62548;BME280;48602;45.192;5.722;2023-04-28T05:19:19;99285.53;;;15.45;63.98
62548;BME280;48602;45.192;5.722;2023-04-28T05:21:45;99288.72;;;15.51;63.72
62548;BME280;48602;45.192;5.722;2023-04-28T05:24:13;99283.84;;;15.59;63.92
62548;BME280;48602;45.192;5.722;2023-04-28T05:26:38;99286.16;;;15.65;63.89
62548;BME280;48602;45.192;5.722;2023-04-28T05:29:04;99287.50;;;15.73;63.84
62548;BME280;48602;45.192;5.722;2023-04-28T05:31:29;99282.59;;;15.81;63.66
62548;BME280;48602;45.192;5.722;2023-04-28T05:33:55;99285.66;;;15.89;63.68
62548;BME280;48602;45.192;5.722;2023-04-28T05:36:20;99287.09;;;15.94;63.82
62548;BME280;48602;45.192;5.722;2023-04-28T05:38:46;99295.47;;;16.02;62.92
62548;BME280;48602;45.192;5.722;2023-04-28T05:41:11;99297.88;;;16.07;63.08
62548;BME280;48602;45.192;5.722;2023-04-28T05:43:36;99294.06;;;16.11;62.86
62548;BME280;48602;45.192;5.722;2023-04-28T05:46:02;99293.78;;;16.16;62.40
62548;BME280;48602;45.192;5.722;2023-04-28T05:48:27;99298.94;;;16.19;62.28
62548;BME280;48602;45.192;5.722;2023-04-28T05:50:53;99295.31;;;16.20;62.34
62548;BME280;48602;45.192;5.722;2023-04-28T05:53:18;99294.13;;;16.25;61.95
62548;BME280;48602;45.192;5.722;2023-04-28T05:55:44;99290.38;;;16.28;61.78
62548;BME280;48602;45.192;5.722;2023-04-28T05:58:09;99289.25;;;16.32;61.68
62548;BME280;48602;45.192;5.722;2023-04-28T06:00:34;99297.16;;;16.33;61.89
62548;BME280;48602;45.192;5.722;2023-04-28T06:03:00;99291.91;;;16.32;61.58
62548;BME280;48602;45.192;5.722;2023-04-28T06:05:26;99292.94;;;16.29;61.79
62548;BME280;48602;45.192;5.722;2023-04-28T06:07:51;99286.13;;;16.25;61.81
62548;BME280;48602;45.192;5.722;2023-04-28T06:10:17;99289.91;;;16.21;62.75
62548;BME280;48602;45.192;5.722;2023-04-28T06:12:43;99294.75;;;16.15;62.27
62548;BME280;48602;45.192;5.722;2023-04-28T06:15:08;99294.16;;;16.10;62.86
62548;BME280;48602;45.192;5.722;2023-04-28T06:17:34;99300.53;;;16.07;62.80
62548;BME280;48602;45.192;5.722;2023-04-28T06:19:59;99300.72;;;16.04;62.89
62548;BME280;48602;45.192;5.722;2023-04-28T06:22:25;99295.56;;;16.01;62.94
62548;BME280;48602;45.192;5.722;2023-04-28T06:24:50;99292.06;;;16.00;63.23
62548;BME280;48602;45.192;5.722;2023-04-28T06:27:16;99287.75;;;15.98;63.57
62548;BME280;48602;45.192;5.722;2023-04-28T06:29:41;99291.53;;;15.94;63.69
62548;BME280;48602;45.192;5.722;2023-04-28T06:32:07;99288.16;;;15.92;64.30
62548;BME280;48602;45.192;5.722;2023-04-28T06:34:33;99297.25;;;15.88;64.88
62548;BME280;48602;45.192;5.722;2023-04-28T06:36:58;99295.03;;;15.80;65.48
62548;BME280;48602;45.192;5.722;2023-04-28T06:39:24;99299.78;;;15.75;64.51
62548;BME280;48602;45.192;5.722;2023-04-28T06:41:49;99304.50;;;15.70;64.27
62548;BME280;48602;45.192;5.722;2023-04-28T06:44:15;99298.56;;;15.65;65.22
62548;BME280;48602;45.192;5.722;2023-04-28T06:46:40;99300.63;;;15.60;65.45
62548;BME280;48602;45.192;5.722;2023-04-28T06:49:06;99312.97;;;15.61;65.50
62548;BME280;48602;45.192;5.722;2023-04-28T06:51:32;99309.38;;;15.62;66.14
62548;BME280;48602;45.192;5.722;2023-04-28T06:53:58;99304.91;;;15.62;64.79
62548;BME280;48602;45.192;5.722;2023-04-28T06:56:23;99304.06;;;15.62;64.95
62548;BME280;48602;45.192;5.722;2023-04-28T06:58:49;99311.00;;;15.64;64.70
62548;BME280;48602;45.192;5.722;2023-04-28T07:01:15;99305.53;;;15.67;64.87
62548;BME280;48602;45.192;5.722;2023-04-28T07:03:40;99314.88;;;15.75;65.43
62548;BME280;48602;45.192;5.722;2023-04-28T07:06:06;99303.84;;;15.81;65.01
62548;BME280;48602;45.192;5.722;2023-04-28T07:08:33;99315.09;;;15.86;64.67
62548;BME280;48602;45.192;5.722;2023-04-28T07:10:58;99305.78;;;15.93;64.48
62548;BME280;48602;45.192;5.722;2023-04-28T07:13:24;99305.34;;;16.00;64.40
62548;BME280;48602;45.192;5.722;2023-04-28T07:15:49;99313.75;;;16.09;64.57
62548;BME280;48602;45.192;5.722;2023-04-28T07:18:15;99303.66;;;16.14;63.42
62548;BME280;48602;45.192;5.722;2023-04-28T07:20:40;99308.63;;;16.20;63.33
62548;BME280;48602;45.192;5.722;2023-04-28T07:23:05;99304.84;;;16.24;63.45
62548;BME280;48602;45.192;5.722;2023-04-28T07:25:31;99307.19;;;16.28;63.38
62548;BME280;48602;45.192;5.722;2023-04-28T07:27:56;99305.31;;;16.30;62.62
62548;BME280;48602;45.192;5.722;2023-04-28T07:30:22;99310.34;;;16.35;62.16
62548;BME280;48602;45.192;5.722;2023-04-28T07:32:47;99308.38;;;16.38;62.66
62548;BME280;48602;45.192;5.722;2023-04-28T07:35:12;99297.44;;;16.43;62.75
62548;BME280;48602;45.192;5.722;2023-04-28T07:37:38;99305.91;;;16.50;61.87
62548;BME280;48602;45.192;5.722;2023-04-28T07:40:05;99307.34;;;16.55;62.18
62548;BME280;48602;45.192;5.722;2023-04-28T07:42:31;99306.88;;;16.63;61.57
62548;BME280;48602;45.192;5.722;2023-04-28T07:44:56;99294.75;;;16.73;61.20
62548;BME280;48602;45.192;5.722;2023-04-28T07:47:23;99301.19;;;16.83;60.87
62548;BME280;48602;45.192;5.722;2023-04-28T07:49:48;99295.94;;;16.96;60.52
62548;BME280;48602;45.192;5.722;2023-04-28T07:52:14;99286.50;;;17.04;60.44
62548;BME280;48602;45.192;5.722;2023-04-28T07:54:40;99285.91;;;17.14;60.21
62548;BME280;48602;45.192;5.722;2023-04-28T07:57:05;99295.13;;;17.22;60.10
62548;BME280;48602;45.192;5.722;2023-04-28T07:59:34;99300.06;;;17.28;59.77
62548;BME280;48602;45.192;5.722;2023-04-28T08:01:59;99311.38;;;17.32;59.30
62548;BME280;48602;45.192;5.722;2023-04-28T08:04:25;99293.47;;;17.34;59.54
62548;BME280;48602;45.192;5.722;2023-04-28T08:06:50;99288.72;;;17.39;59.14
62548;BME280;48602;45.192;5.722;2023-04-28T08:09:15;99283.91;;;17.44;59.06
62548;BME280;48602;45.192;5.722;2023-04-28T08:11:41;99280.09;;;17.48;58.94
62548;BME280;48602;45.192;5.722;2023-04-28T08:14:06;99280.75;;;17.52;58.57
62548;BME280;48602;45.192;5.722;2023-04-28T08:16:32;99283.91;;;17.58;58.24
62548;BME280;48602;45.192;5.722;2023-04-28T08:19:01;99282.34;;;17.68;57.98
62548;BME280;48602;45.192;5.722;2023-04-28T08:21:26;99283.53;;;17.77;58.09
62548;BME280;48602;45.192;5.722;2023-04-28T08:23:52;99273.88;;;17.89;57.95
62548;BME280;48602;45.192;5.722;2023-04-28T08:26:17;99280.06;;;18.02;58.06
62548;BME280;48602;45.192;5.722;2023-04-28T08:28:43;99284.56;;;18.14;57.38
62548;BME280;48602;45.192;5.722;2023-04-28T08:31:08;99289.19;;;18.25;56.51
62548;BME280;48602;45.192;5.722;2023-04-28T08:33:33;99295.50;;;18.36;56.59
62548;BME280;48602;45.192;5.722;2023-04-28T08:35:59;99290.34;;;18.46;56.19
62548;BME280;48602;45.192;5.722;2023-04-28T08:38:25;99285.13;;;18.57;55.77
62548;BME280;48602;45.192;5.722;2023-04-28T08:40:50;99284.28;;;18.69;55.49
62548;BME280;48602;45.192;5.722;2023-04-28T08:43:16;99277.31;;;18.79;55.25
62548;BME280;48602;45.192;5.722;2023-04-28T08:45:43;99282.66;;;18.92;55.30
62548;BME280;48602;45.192;5.722;2023-04-28T08:48:20;99289.59;;;19.07;55.00
62548;BME280;48602;45.192;5.722;2023-04-28T08:50:51;99283.56;;;19.16;53.69
62548;BME280;48602;45.192;5.722;2023-04-28T08:53:26;99278.53;;;19.25;54.41
62548;BME280;48602;45.192;5.722;2023-04-28T08:55:54;99262.97;;;19.30;53.97
62548;BME280;48602;45.192;5.722;2023-04-28T08:58:25;99265.09;;;19.37;53.48
62548;BME280;48602;45.192;5.722;2023-04-28T09:00:51;99280.69;;;19.43;53.33
62548;BME280;48602;45.192;5.722;2023-04-28T09:03:17;99282.94;;;19.49;53.22
62548;BME280;48602;45.192;5.722;2023-04-28T09:05:43;99278.75;;;19.58;53.20
62548;BME280;48602;45.192;5.722;2023-04-28T09:08:08;99279.75;;;19.68;52.41
62548;BME280;48602;45.192;5.722;2023-04-28T09:10:36;99278.22;;;19.77;52.31
62548;BME280;48602;45.192;5.722;2023-04-28T09:13:02;99279.09;;;19.89;52.45
62548;BME280;48602;45.192;5.722;2023-04-28T09:15:35;99287.38;;;19.97;52.11
62548;BME280;48602;45.192;5.722;2023-04-28T09:18:05;99270.53;;;20.07;52.01
62548;BME280;48602;45.192;5.722;2023-04-28T09:20:32;99284.16;;;20.15;51.27
62548;BME280;48602;45.192;5.722;2023-04-28T09:23:15;99264.72;;;20.25;51.76
62548;BME280;48602;45.192;5.722;2023-04-28T09:26:11;99262.72;;;20.39;51.55
62548;BME280;48602;45.192;5.722;2023-04-28T09:28:36;99271.59;;;20.51;50.72
62548;BME280;48602;45.192;5.722;2023-04-28T09:31:02;99253.69;;;20.63;50.15
62548;BME280;48602;45.192;5.722;2023-04-28T09:33:28;99246.41;;;20.76;50.91
62548;BME280;48602;45.192;5.722;2023-04-28T09:35:53;99239.22;;;20.87;49.09
62548;BME280;48602;45.192;5.722;2023-04-28T09:38:21;99247.34;;;20.97;49.33
62548;BME280;48602;45.192;5.722;2023-04-28T09:40:51;99246.38;;;21.09;48.87
62548;BME280;48602;45.192;5.722;2023-04-28T09:45:50;99234.69;;;21.21;48.88
62548;BME280;48602;45.192;5.722;2023-04-28T09:48:16;99228.66;;;21.29;49.79
62548;BME280;48602;45.192;5.722;2023-04-28T09:50:43;99223.66;;;21.36;49.60
62548;BME280;48602;45.192;5.722;2023-04-28T09:53:10;99220.59;;;21.40;48.95
62548;BME280;48602;45.192;5.722;2023-04-28T09:55:40;99213.41;;;21.41;49.57
62548;BME280;48602;45.192;5.722;2023-04-28T09:58:08;99208.06;;;21.41;49.44
62548;BME280;48602;45.192;5.722;2023-04-28T10:00:38;99213.78;;;21.36;49.23
62548;BME280;48602;45.192;5.722;2023-04-28T10:03:05;99202.69;;;21.30;49.40
62548;BME280;48602;45.192;5.722;2023-04-28T10:05:32;99207.38;;;21.28;48.88
62548;BME280;48602;45.192;5.722;2023-04-28T10:08:00;99225.88;;;21.31;49.44
62548;BME280;48602;45.192;5.722;2023-04-28T10:10:26;99211.34;;;21.33;49.36
62548;BME280;48602;45.192;5.722;2023-04-28T10:12:53;99219.16;;;21.36;49.17
62548;BME280;48602;45.192;5.722;2023-04-28T10:15:19;99215.50;;;21.37;49.29
62548;BME280;48602;45.192;5.722;2023-04-28T10:17:46;99214.13;;;21.43;49.03
62548;BME280;48602;45.192;5.722;2023-04-28T10:20:14;99213.59;;;21.49;48.91
62548;BME280;48602;45.192;5.722;2023-04-28T10:25:15;99225.00;;;21.62;48.26
62548;BME280;48602;45.192;5.722;2023-04-28T10:27:47;99213.66;;;21.70;48.13
62548;BME280;48602;45.192;5.722;2023-04-28T10:30:18;99216.81;;;21.75;48.37
62548;BME280;48602;45.192;5.722;2023-04-28T10:32:44;99207.84;;;21.85;48.69
62548;BME280;48602;45.192;5.722;2023-04-28T10:38:12;99209.75;;;21.94;48.24
62548;BME280;48602;45.192;5.722;2023-04-28T10:40:39;99214.25;;;21.94;48.13
62548;BME280;48602;45.192;5.722;2023-04-28T10:43:09;99199.66;;;21.87;48.27
62548;BME280;48602;45.192;5.722;2023-04-28T10:48:21;99190.94;;;21.74;48.92
62548;BME280;48602;45.192;5.722;2023-04-28T10:56:13;99186.44;;;21.95;48.66
62548;BME280;48602;45.192;5.722;2023-04-28T10:58:41;99165.03;;;22.05;48.74
62548;BME280;48602;45.192;5.722;2023-04-28T11:06:40;99153.34;;;22.46;48.12
62548;BME280;48602;45.192;5.722;2023-04-28T11:11:37;99158.25;;;22.71;47.44
62548;BME280;48602;45.192;5.722;2023-04-28T11:19:21;99155.66;;;22.90;46.98
62548;BME280;48602;45.192;5.722;2023-04-28T11:21:47;99146.31;;;22.94;46.86
62548;BME280;48602;45.192;5.722;2023-04-28T11:24:13;99139.38;;;23.02;47.16
62548;BME280;48602;45.192;5.722;2023-04-28T11:26:40;99121.84;;;23.07;46.67
62548;BME280;48602;45.192;5.722;2023-04-28T11:29:06;99130.19;;;23.14;46.94
62548;BME280;48602;45.192;5.722;2023-04-28T11:31:32;99117.88;;;23.21;46.41
62548;BME280;48602;45.192;5.722;2023-04-28T11:34:09;99127.94;;;23.28;46.09
62548;BME280;48602;45.192;5.722;2023-04-28T11:36:41;99106.97;;;23.32;46.23
62548;BME280;48602;45.192;5.722;2023-04-28T11:39:08;99100.31;;;23.36;46.58
62548;BME280;48602;45.192;5.722;2023-04-28T11:41:36;99106.97;;;23.42;46.39
62548;BME280;48602;45.192;5.722;2023-04-28T11:44:29;99104.16;;;23.53;46.04
62548;BME280;48602;45.192;5.722;2023-04-28T11:46:58;99107.13;;;23.59;45.96
62548;BME280;48602;45.192;5.722;2023-04-28T11:49:26;99099.91;;;23.60;45.54
62548;BME280;48602;45.192;5.722;2023-04-28T11:52:03;99094.53;;;23.60;45.72
62548;BME280;48602;45.192;5.722;2023-04-28T11:54:30;99070.56;;;23.66;46.24
62548;BME280;48602;45.192;5.722;2023-04-28T11:56:57;99077.47;;;23.79;45.87
62548;BME280;48602;45.192;5.722;2023-04-28T11:59:33;99071.63;;;23.93;45.31
62548;BME280;48602;45.192;5.722;2023-04-28T12:02:04;99064.19;;;24.05;45.15
62548;BME280;48602;45.192;5.722;2023-04-28T12:04:37;99058.75;;;24.14;45.72
62548;BME280;48602;45.192;5.722;2023-04-28T12:09:32;99067.53;;;24.26;45.30
62548;BME280;48602;45.192;5.722;2023-04-28T12:14:28;99055.44;;;24.30;45.22
62548;BME280;48602;45.192;5.722;2023-04-28T12:16:55;99051.47;;;24.34;45.00
62548;BME280;48602;45.192;5.722;2023-04-28T12:19:21;99056.13;;;24.42;45.42
62548;BME280;48602;45.192;5.722;2023-04-28T12:22:07;99056.28;;;24.58;45.19
62548;BME280;48602;45.192;5.722;2023-04-28T12:24:32;99054.22;;;24.69;44.35
62548;BME280;48602;45.192;5.722;2023-04-28T12:27:29;99045.91;;;24.81;44.53
62548;BME280;48602;45.192;5.722;2023-04-28T12:29:56;99043.75;;;24.84;44.38
62548;BME280;48602;45.192;5.722;2023-04-28T12:32:41;99056.78;;;24.89;44.62
62548;BME280;48602;45.192;5.722;2023-04-28T12:35:09;99054.50;;;24.94;43.68
62548;BME280;48602;45.192;5.722;2023-04-28T12:37:35;99054.72;;;25.00;44.47
62548;BME280;48602;45.192;5.722;2023-04-28T12:40:03;99050.41;;;25.08;44.14
62548;BME280;48602;45.192;5.722;2023-04-28T12:42:29;99051.41;;;25.07;43.53
62548;BME280;48602;45.192;5.722;2023-04-28T12:44:54;99043.94;;;25.00;44.00
62548;BME280;48602;45.192;5.722;2023-04-28T12:47:20;99053.19;;;24.98;43.73
62548;BME280;48602;45.192;5.722;2023-04-28T12:49:45;99054.88;;;24.99;43.75
62548;BME280;48602;45.192;5.722;2023-04-28T12:52:13;99052.78;;;24.93;43.10
62548;BME280;48602;45.192;5.722;2023-04-28T12:54:38;99049.84;;;24.86;43.42
62548;BME280;48602;45.192;5.722;2023-04-28T12:57:07;99035.81;;;24.83;44.14
62548;BME280;48602;45.192;5.722;2023-04-28T12:59:33;99039.06;;;24.86;44.51
62548;BME280;48602;45.192;5.722;2023-04-28T13:01:59;99042.16;;;24.91;44.22
62548;BME280;48602;45.192;5.722;2023-04-28T13:04:24;99039.19;;;24.94;44.05
62548;BME280;48602;45.192;5.722;2023-04-28T13:06:50;99041.38;;;24.99;44.42
62548;BME280;48602;45.192;5.722;2023-04-28T13:09:16;99020.66;;;24.99;43.92
62548;BME280;48602;45.192;5.722;2023-04-28T13:11:42;99014.19;;;25.10;44.25
62548;BME280;48602;45.192;5.722;2023-04-28T13:14:07;99031.97;;;25.21;43.82
62548;BME280;48602;45.192;5.722;2023-04-28T13:16:33;99038.81;;;25.33;42.97
62548;BME280;48602;45.192;5.722;2023-04-28T13:19:00;99034.88;;;25.45;43.30
62548;BME280;48602;45.192;5.722;2023-04-28T13:21:26;99025.66;;;25.56;43.08
62548;BME280;48602;45.192;5.722;2023-04-28T13:23:53;99029.75;;;25.60;42.39
62548;BME280;48602;45.192;5.722;2023-04-28T13:26:19;99034.13;;;25.61;42.42
62548;BME280;48602;45.192;5.722;2023-04-28T13:28:46;99024.91;;;25.63;42.63
62548;BME280;48602;45.192;5.722;2023-04-28T13:31:12;99016.47;;;25.66;42.24